sensor_id;sensor_type;location;lat;lon;timestamp;pressure;altitude;pressure_sealevel;temperature;humidity
71795;BME280;59641;45.188;5.712;2023-04-08T00:00:13;99436.50;;;12.00;48.54
71795;BME280;59641;45.188;5.712;2023-04-08T00:02:38;99434.03;;;11.99;48.86
71795;BME280;59641;45.188;5.712;2023-04-08T00:05:04;99431.56;;;11.97;48.88
71795;BME280;59641;45.188;5.712;2023-04-08T00:07:30;99434.50;;;11.96;49.14
71795;BME280;59641;45.188;5.712;2023-04-08T00:09:55;99437.19;;;11.96;49.27
71795;BME280;59641;45.188;5.712;2023-04-08T00:12:21;99431.81;;;11.96;49.44
71795;BME280;59641;45.188;5.712;2023-04-08T00:14:46;99434.69;;;11.94;49.38
71795;BME280;59641;45.188;5.712;2023-04-08T00:17:11;99425.81;;;11.93;49.44
71795;BME280;59641;45.188;5.712;2023-04-08T00:19:37;99434.91;;;11.92;49.38
71795;BME280;59641;45.188;5.712;2023-04-08T00:22:02;99432.22;;;11.92;49.54
71795;BME280;59641;45.188;5.712;2023-04-08T00:24:27;99431.41;;;11.92;49.67
71795;BME280;59641;45.188;5.712;2023-04-08T00:26:53;99425.44;;;11.90;49.50
71795;BME280;59641;45.188;5.712;2023-04-08T00:29:18;99429.53;;;11.92;49.43
71795;BME280;59641;45.188;5.712;2023-04-08T00:31:43;99427.91;;;11.91;49.70
71795;BME280;59641;45.188;5.712;2023-04-08T00:34:09;99434.56;;;11.89;49.50
71795;BME280;59641;45.188;5.712;2023-04-08T00:36:35;99427.53;;;11.88;49.58
71795;BME280;59641;45.188;5.712;2023-04-08T00:39:01;99432.31;;;11.86;49.57
71795;BME280;59641;45.188;5.712;2023-04-08T00:41:28;99430.66;;;11.85;49.45
71795;BME280;59641;45.188;5.712;2023-04-08T00:43:53;99432.75;;;11.83;49.44
71795;BME280;59641;45.188;5.712;2023-04-08T00:46:20;99431.31;;;11.80;49.31
71795;BME280;59641;45.188;5.712;2023-04-08T00:48:46;99432.59;;;11.78;49.36
71795;BME280;59641;45.188;5.712;2023-04-08T00:51:11;99426.63;;;11.76;49.36
71795;BME280;59641;45.188;5.712;2023-04-08T00:53:37;99424.19;;;11.74;49.30
71795;BME280;59641;45.188;5.712;2023-04-08T00:56:03;99432.69;;;11.71;49.44
71795;BME280;59641;45.188;5.712;2023-04-08T00:58:28;99427.53;;;11.69;49.26
71795;BME280;59641;45.188;5.712;2023-04-08T01:01:01;99428.81;;;11.67;49.09
71795;BME280;59641;45.188;5.712;2023-04-08T01:06:10;99433.59;;;11.65;49.49
71795;BME280;59641;45.188;5.712;2023-04-08T01:08:39;99434.88;;;11.62;49.39
71795;BME280;59641;45.188;5.712;2023-04-08T01:11:09;99433.44;;;11.60;49.38
71795;BME280;59641;45.188;5.712;2023-04-08T01:13:39;99435.53;;;11.58;49.63
71795;BME280;59641;45.188;5.712;2023-04-08T01:16:06;99443.00;;;11.56;49.95
71795;BME280;59641;45.188;5.712;2023-04-08T01:18:34;99447.56;;;11.55;49.78
71795;BME280;59641;45.188;5.712;2023-04-08T01:21:01;99446.13;;;11.52;49.90
71795;BME280;59641;45.188;5.712;2023-04-08T01:26:28;99443.06;;;11.49;50.07
71795;BME280;59641;45.188;5.712;2023-04-08T01:28:57;99453.00;;;11.48;50.00
71795;BME280;59641;45.188;5.712;2023-04-08T01:31:24;99453.22;;;11.47;50.07
71795;BME280;59641;45.188;5.712;2023-04-08T01:33:51;99457.78;;;11.46;50.11
71795;BME280;59641;45.188;5.712;2023-04-08T01:36:19;99457.78;;;11.46;50.10
71795;BME280;59641;45.188;5.712;2023-04-08T01:38:46;99454.25;;;11.46;50.13
71795;BME280;59641;45.188;5.712;2023-04-08T01:41:12;99459.63;;;11.46;50.31
71795;BME280;59641;45.188;5.712;2023-04-08T01:43:41;99453.66;;;11.44;50.20
71795;BME280;59641;45.188;5.712;2023-04-08T01:46:09;99452.03;;;11.43;50.15
71795;BME280;59641;45.188;5.712;2023-04-08T01:48:36;99456.81;;;11.41;50.31
71795;BME280;59641;45.188;5.712;2023-04-08T01:51:04;99448.16;;;11.39;50.28
71795;BME280;59641;45.188;5.712;2023-04-08T01:53:29;99451.88;;;11.38;50.19
71795;BME280;59641;45.188;5.712;2023-04-08T01:55:59;99447.75;;;11.35;50.46
71795;BME280;59641;45.188;5.712;2023-04-08T01:58:30;99440.75;;;11.34;50.40
71795;BME280;59641;45.188;5.712;2023-04-08T02:00:57;99443.66;;;11.33;50.08
71795;BME280;59641;45.188;5.712;2023-04-08T02:03:24;99448.66;;;11.29;50.11
71795;BME280;59641;45.188;5.712;2023-04-08T02:05:51;99451.56;;;11.27;50.32
71795;BME280;59641;45.188;5.712;2023-04-08T02:08:16;99449.31;;;11.24;50.47
71795;BME280;59641;45.188;5.712;2023-04-08T02:10:42;99452.00;;;11.24;50.43
71795;BME280;59641;45.188;5.712;2023-04-08T02:13:07;99452.47;;;11.21;50.55
71795;BME280;59641;45.188;5.712;2023-04-08T02:15:35;99456.16;;;11.20;50.48
71795;BME280;59641;45.188;5.712;2023-04-08T02:18:12;99444.63;;;11.20;50.39
71795;BME280;59641;45.188;5.712;2023-04-08T02:20:45;99451.03;;;11.19;50.12
71795;BME280;59641;45.188;5.712;2023-04-08T02:23:19;99447.97;;;11.15;50.48
71795;BME280;59641;45.188;5.712;2023-04-08T02:25:47;99448.41;;;11.12;50.52
71795;BME280;59641;45.188;5.712;2023-04-08T02:28:14;99462.66;;;11.13;50.83
71795;BME280;59641;45.188;5.712;2023-04-08T02:30:47;99459.97;;;11.13;51.05
71795;BME280;59641;45.188;5.712;2023-04-08T02:33:13;99454.59;;;11.13;50.97
71795;BME280;59641;45.188;5.712;2023-04-08T02:35:40;99451.91;;;11.13;50.99
71795;BME280;59641;45.188;5.712;2023-04-08T02:38:06;99453.56;;;11.14;51.20
71795;BME280;59641;45.188;5.712;2023-04-08T02:40:32;99456.00;;;11.15;51.17
71795;BME280;59641;45.188;5.712;2023-04-08T02:42:59;99461.84;;;11.12;51.30
71795;BME280;59641;45.188;5.712;2023-04-08T02:45:34;99457.28;;;11.13;51.12
71795;BME280;59641;45.188;5.712;2023-04-08T02:48:01;99459.16;;;11.12;51.19
71795;BME280;59641;45.188;5.712;2023-04-08T02:50:27;99465.78;;;11.09;51.10
71795;BME280;59641;45.188;5.712;2023-04-08T02:52:52;99460.63;;;11.08;51.01
71795;BME280;59641;45.188;5.712;2023-04-08T02:55:18;99457.56;;;11.04;50.98
71795;BME280;59641;45.188;5.712;2023-04-08T02:57:43;99466.91;;;11.02;50.98
71795;BME280;59641;45.188;5.712;2023-04-08T03:00:09;99459.25;;;10.99;50.64
71795;BME280;59641;45.188;5.712;2023-04-08T03:02:35;99467.16;;;10.94;51.03
71795;BME280;59641;45.188;5.712;2023-04-08T03:05:00;99472.16;;;10.90;51.17
71795;BME280;59641;45.188;5.712;2023-04-08T03:07:26;99469.88;;;10.87;51.21
71795;BME280;59641;45.188;5.712;2023-04-08T03:09:52;99464.97;;;10.84;51.22
71795;BME280;59641;45.188;5.712;2023-04-08T03:12:19;99475.09;;;10.82;51.37
71795;BME280;59641;45.188;5.712;2023-04-08T03:14:44;99468.31;;;10.79;51.12
71795;BME280;59641;45.188;5.712;2023-04-08T03:17:10;99471.63;;;10.75;51.52
71795;BME280;59641;45.188;5.712;2023-04-08T03:19:35;99468.59;;;10.71;51.60
71795;BME280;59641;45.188;5.712;2023-04-08T03:22:00;99472.53;;;10.69;51.71
71795;BME280;59641;45.188;5.712;2023-04-08T03:24:26;99476.22;;;10.68;51.67
71795;BME280;59641;45.188;5.712;2023-04-08T03:26:51;99482.66;;;10.66;51.66
71795;BME280;59641;45.188;5.712;2023-04-08T03:29:16;99481.84;;;10.66;52.00
71795;BME280;59641;45.188;5.712;2023-04-08T03:31:42;99489.06;;;10.65;51.97
71795;BME280;59641;45.188;5.712;2023-04-08T03:34:07;99488.03;;;10.66;52.09
71795;BME280;59641;45.188;5.712;2023-04-08T03:36:32;99484.28;;;10.68;52.02
71795;BME280;59641;45.188;5.712;2023-04-08T03:38:58;99495.88;;;10.68;52.14
71795;BME280;59641;45.188;5.712;2023-04-08T03:41:23;99484.09;;;10.69;52.13
71795;BME280;59641;45.188;5.712;2023-04-08T03:43:49;99485.94;;;10.69;51.88
71795;BME280;59641;45.188;5.712;2023-04-08T03:46:14;99487.38;;;10.71;51.92
71795;BME280;59641;45.188;5.712;2023-04-08T03:48:39;99485.50;;;10.72;51.65
71795;BME280;59641;45.188;5.712;2023-04-08T03:51:05;99484.91;;;10.70;51.74
71795;BME280;59641;45.188;5.712;2023-04-08T03:53:30;99492.13;;;10.69;51.88
71795;BME280;59641;45.188;5.712;2023-04-08T03:55:56;99486.75;;;10.69;51.72
71795;BME280;59641;45.188;5.712;2023-04-08T03:58:21;99494.22;;;10.67;51.59
71795;BME280;59641;45.188;5.712;2023-04-08T04:00:47;99487.63;;;10.63;51.35
71795;BME280;59641;45.188;5.712;2023-04-08T04:03:12;99485.63;;;10.58;51.54
71795;BME280;59641;45.188;5.712;2023-04-08T04:05:38;99485.25;;;10.48;51.65
71795;BME280;59641;45.188;5.712;2023-04-08T04:08:04;99491.09;;;10.38;51.65
71795;BME280;59641;45.188;5.712;2023-04-08T04:10:30;99488.22;;;10.33;52.09
71795;BME280;59641;45.188;5.712;2023-04-08T04:12:55;99499.16;;;10.32;51.97
71795;BME280;59641;45.188;5.712;2023-04-08T04:15:20;99498.34;;;10.31;52.26
71795;BME280;59641;45.188;5.712;2023-04-08T04:17:49;99503.72;;;10.31;52.49
71795;BME280;59641;45.188;5.712;2023-04-08T04:20:15;99501.03;;;10.31;52.19
71795;BME280;59641;45.188;5.712;2023-04-08T04:22:41;99506.38;;;10.31;52.34
71795;BME280;59641;45.188;5.712;2023-04-08T04:25:07;99509.06;;;10.31;52.18
71795;BME280;59641;45.188;5.712;2023-04-08T04:27:32;99500.22;;;10.31;52.18
71795;BME280;59641;45.188;5.712;2023-04-08T04:29:59;99509.88;;;10.32;52.51
71795;BME280;59641;45.188;5.712;2023-04-08T04:32:25;99509.06;;;10.31;52.32
71795;BME280;59641;45.188;5.712;2023-04-08T04:34:50;99509.06;;;10.31;52.22
71795;BME280;59641;45.188;5.712;2023-04-08T04:37:16;99514.44;;;10.31;52.36
71795;BME280;59641;45.188;5.712;2023-04-08T04:39:41;99510.94;;;10.31;52.32
71795;BME280;59641;45.188;5.712;2023-04-08T04:42:07;99510.13;;;10.30;52.39
71795;BME280;59641;45.188;5.712;2023-04-08T04:44:32;99508.06;;;10.32;52.63
71795;BME280;59641;45.188;5.712;2023-04-08T04:46:57;99514.25;;;10.33;52.37
71795;BME280;59641;45.188;5.712;2023-04-08T04:49:23;99516.09;;;10.32;52.39
71795;BME280;59641;45.188;5.712;2023-04-08T04:51:48;99519.59;;;10.33;52.22
71795;BME280;59641;45.188;5.712;2023-04-08T04:54:13;99519.81;;;10.31;52.09
71795;BME280;59641;45.188;5.712;2023-04-08T04:56:39;99525.41;;;10.30;52.32
71795;BME280;59641;45.188;5.712;2023-04-08T04:59:04;99526.41;;;10.29;52.17
71795;BME280;59641;45.188;5.712;2023-04-08T05:01:30;99523.09;;;10.27;52.35
71795;BME280;59641;45.188;5.712;2023-04-08T05:03:55;99519.78;;;10.24;52.35
71795;BME280;59641;45.188;5.712;2023-04-08T05:06:22;99519.22;;;10.22;52.46
71795;BME280;59641;45.188;5.712;2023-04-08T05:08:48;99524.78;;;10.21;52.29
71795;BME280;59641;45.188;5.712;2023-04-08T05:11:13;99523.34;;;10.18;52.03
71795;BME280;59641;45.188;5.712;2023-04-08T05:13:41;99528.53;;;10.13;52.43
71795;BME280;59641;45.188;5.712;2023-04-08T05:16:06;99533.28;;;10.11;52.46
71795;BME280;59641;45.188;5.712;2023-04-08T05:18:32;99533.47;;;10.10;52.35
71795;BME280;59641;45.188;5.712;2023-04-08T05:20:57;99539.28;;;10.07;52.41
71795;BME280;59641;45.188;5.712;2023-04-08T05:23:22;99533.72;;;10.01;52.48
71795;BME280;59641;45.188;5.712;2023-04-08T05:25:48;99541.97;;;10.00;52.85
71795;BME280;59641;45.188;5.712;2023-04-08T05:28:13;99541.34;;;9.98;52.66
71795;BME280;59641;45.188;5.712;2023-04-08T05:30:38;99546.94;;;9.96;52.81
71795;BME280;59641;45.188;5.712;2023-04-08T05:33:04;99539.34;;;9.93;52.84
71795;BME280;59641;45.188;5.712;2023-04-08T05:35:29;99550.66;;;9.95;52.76
71795;BME280;59641;45.188;5.712;2023-04-08T05:37:55;99557.88;;;9.95;53.21
71795;BME280;59641;45.188;5.712;2023-04-08T05:40:20;99546.94;;;9.96;53.14
71795;BME280;59641;45.188;5.712;2023-04-08T05:42:46;99563.66;;;9.98;53.06
71795;BME280;59641;45.188;5.712;2023-04-08T05:45:11;99563.84;;;9.97;52.99
71795;BME280;59641;45.188;5.712;2023-04-08T05:47:36;99565.47;;;9.98;52.95
71795;BME280;59641;45.188;5.712;2023-04-08T05:50:02;99568.16;;;9.98;53.11
71795;BME280;59641;45.188;5.712;2023-04-08T05:52:27;99566.34;;;9.98;53.08
71795;BME280;59641;45.188;5.712;2023-04-08T05:54:53;99575.19;;;9.99;53.25
71795;BME280;59641;45.188;5.712;2023-04-08T05:57:18;99568.78;;;10.00;52.77
71795;BME280;59641;45.188;5.712;2023-04-08T05:59:43;99570.66;;;9.99;52.81
71795;BME280;59641;45.188;5.712;2023-04-08T06:02:09;99570.25;;;9.96;53.08
71795;BME280;59641;45.188;5.712;2023-04-08T06:04:35;99576.81;;;10.00;53.33
71795;BME280;59641;45.188;5.712;2023-04-08T06:07:00;99583.84;;;10.01;53.18
71795;BME280;59641;45.188;5.712;2023-04-08T06:09:27;99583.63;;;10.02;52.96
71795;BME280;59641;45.188;5.712;2023-04-08T06:11:52;99587.56;;;10.00;53.18
71795;BME280;59641;45.188;5.712;2023-04-08T06:14:18;99586.53;;;10.01;53.27
71795;BME280;59641;45.188;5.712;2023-04-08T06:16:46;99590.03;;;10.01;53.29
71795;BME280;59641;45.188;5.712;2023-04-08T06:19:11;99582.59;;;10.03;53.53
71795;BME280;59641;45.188;5.712;2023-04-08T06:21:36;99583.81;;;10.08;53.36
71795;BME280;59641;45.188;5.712;2023-04-08T06:24:02;99591.84;;;10.08;53.15
71795;BME280;59641;45.188;5.712;2023-04-08T06:26:27;99594.34;;;10.09;53.02
71795;BME280;59641;45.188;5.712;2023-04-08T06:28:52;99595.38;;;10.08;53.26
71795;BME280;59641;45.188;5.712;2023-04-08T06:31:18;99591.66;;;10.09;53.69
71795;BME280;59641;45.188;5.712;2023-04-08T06:33:43;99594.94;;;10.11;53.65
71795;BME280;59641;45.188;5.712;2023-04-08T06:36:09;99592.66;;;10.15;53.30
71795;BME280;59641;45.188;5.712;2023-04-08T06:38:37;99593.28;;;10.17;53.75
71795;BME280;59641;45.188;5.712;2023-04-08T06:41:06;99591.00;;;10.20;53.56
71795;BME280;59641;45.188;5.712;2023-04-08T06:43:33;99594.50;;;10.21;53.28
71795;BME280;59641;45.188;5.712;2023-04-08T06:45:59;99589.75;;;10.23;53.77
71795;BME280;59641;45.188;5.712;2023-04-08T06:48:25;99592.81;;;10.27;53.47
71795;BME280;59641;45.188;5.712;2023-04-08T06:50:55;99595.13;;;10.30;53.27
71795;BME280;59641;45.188;5.712;2023-04-08T06:53:22;99594.91;;;10.31;53.62
71795;BME280;59641;45.188;5.712;2023-04-08T06:55:51;99590.34;;;10.32;53.69
71795;BME280;59641;45.188;5.712;2023-04-08T06:58:16;99590.56;;;10.37;53.48
71795;BME280;59641;45.188;5.712;2023-04-08T07:00:42;99594.88;;;10.38;53.76
71795;BME280;59641;45.188;5.712;2023-04-08T07:03:08;99600.66;;;10.41;53.57
71795;BME280;59641;45.188;5.712;2023-04-08T07:05:36;99595.69;;;10.45;53.82
71795;BME280;59641;45.188;5.712;2023-04-08T07:08:03;99594.22;;;10.49;53.42
71795;BME280;59641;45.188;5.712;2023-04-08T07:10:28;99600.41;;;10.50;53.57
71795;BME280;59641;45.188;5.712;2023-04-08T07:12:53;99601.84;;;10.52;53.35
71795;BME280;59641;45.188;5.712;2023-04-08T07:15:19;99602.66;;;10.53;53.40
71795;BME280;59641;45.188;5.712;2023-04-08T07:17:45;99610.50;;;10.54;53.49
71795;BME280;59641;45.188;5.712;2023-04-08T07:20:11;99603.28;;;10.55;53.35
71795;BME280;59641;45.188;5.712;2023-04-08T07:22:38;99612.94;;;10.56;53.50
71795;BME280;59641;45.188;5.712;2023-04-08T07:25:03;99605.75;;;10.56;53.58
71795;BME280;59641;45.188;5.712;2023-04-08T07:27:29;99605.31;;;10.59;53.54
71795;BME280;59641;45.188;5.712;2023-04-08T07:29:54;99610.25;;;10.62;53.31
71795;BME280;59641;45.188;5.712;2023-04-08T07:32:20;99608.19;;;10.64;53.54
71795;BME280;59641;45.188;5.712;2023-04-08T07:34:46;99613.09;;;10.68;53.38
71795;BME280;59641;45.188;5.712;2023-04-08T07:37:11;99612.69;;;10.71;53.54
71795;BME280;59641;45.188;5.712;2023-04-08T07:39:37;99615.56;;;10.76;53.21
71795;BME280;59641;45.188;5.712;2023-04-08T07:42:02;99615.31;;;10.77;53.20
71795;BME280;59641;45.188;5.712;2023-04-08T07:44:27;99611.81;;;10.77;53.15
71795;BME280;59641;45.188;5.712;2023-04-08T07:46:53;99615.56;;;10.76;53.42
71795;BME280;59641;45.188;5.712;2023-04-08T07:49:18;99618.63;;;10.79;53.24
71795;BME280;59641;45.188;5.712;2023-04-08T07:51:43;99617.38;;;10.82;53.07
71795;BME280;59641;45.188;5.712;2023-04-08T07:54:09;99619.63;;;10.85;52.97
71795;BME280;59641;45.188;5.712;2023-04-08T07:56:36;99619.63;;;10.85;53.21
71795;BME280;59641;45.188;5.712;2023-04-08T07:59:07;99608.47;;;10.88;52.91
71795;BME280;59641;45.188;5.712;2023-04-08T08:01:32;99619.81;;;10.90;52.84
71795;BME280;59641;45.188;5.712;2023-04-08T08:03:59;99621.69;;;10.90;52.86
71795;BME280;59641;45.188;5.712;2023-04-08T08:06:25;99628.69;;;10.91;52.82
71795;BME280;59641;45.188;5.712;2023-04-08T08:08:51;99626.63;;;10.93;52.98
71795;BME280;59641;45.188;5.712;2023-04-08T08:11:17;99624.09;;;10.98;52.87
71795;BME280;59641;45.188;5.712;2023-04-08T08:13:42;99622.63;;;11.02;52.90
71795;BME280;59641;45.188;5.712;2023-04-08T08:16:07;99619.06;;;11.08;52.68
71795;BME280;59641;45.188;5.712;2023-04-08T08:18:36;99630.81;;;11.14;52.69
71795;BME280;59641;45.188;5.712;2023-04-08T08:21:02;99628.97;;;11.14;52.26
71795;BME280;59641;45.188;5.712;2023-04-08T08:23:27;99626.66;;;11.18;52.42
71795;BME280;59641;45.188;5.712;2023-04-08T08:26:06;99629.56;;;11.16;52.31
71795;BME280;59641;45.188;5.712;2023-04-08T08:28:34;99624.13;;;11.23;52.21
71795;BME280;59641;45.188;5.712;2023-04-08T08:30:59;99631.97;;;11.24;52.31
71795;BME280;59641;45.188;5.712;2023-04-08T08:33:25;99624.28;;;11.28;52.31
71795;BME280;59641;45.188;5.712;2023-04-08T08:35:51;99632.53;;;11.33;52.25
71795;BME280;59641;45.188;5.712;2023-04-08T08:38:16;99631.66;;;11.39;51.94
71795;BME280;59641;45.188;5.712;2023-04-08T08:40:43;99632.88;;;11.43;52.00
71795;BME280;59641;45.188;5.712;2023-04-08T08:43:11;99635.53;;;11.50;51.75
71795;BME280;59641;45.188;5.712;2023-04-08T08:45:40;99632.19;;;11.55;51.57
71795;BME280;59641;45.188;5.712;2023-04-08T08:48:06;99629.66;;;11.60;51.52
71795;BME280;59641;45.188;5.712;2023-04-08T08:50:33;99628.38;;;11.62;51.07
71795;BME280;59641;45.188;5.712;2023-04-08T08:52:58;99634.56;;;11.63;50.98
71795;BME280;59641;45.188;5.712;2023-04-08T08:55:24;99632.50;;;11.65;50.93
71795;BME280;59641;45.188;5.712;2023-04-08T08:57:50;99638.69;;;11.65;50.75
71795;BME280;59641;45.188;5.712;2023-04-08T09:00:16;99637.63;;;11.66;51.04
71795;BME280;59641;45.188;5.712;2023-04-08T09:02:42;99633.72;;;11.69;50.84
71795;BME280;59641;45.188;5.712;2023-04-08T09:05:08;99634.69;;;11.75;50.75
71795;BME280;59641;45.188;5.712;2023-04-08T09:07:37;99630.50;;;11.79;50.68
71795;BME280;59641;45.188;5.712;2023-04-08T09:10:06;99628.78;;;11.84;50.67
71795;BME280;59641;45.188;5.712;2023-04-08T09:12:32;99625.47;;;11.89;50.59
71795;BME280;59641;45.188;5.712;2023-04-08T09:15:08;99626.84;;;11.98;50.44
71795;BME280;59641;45.188;5.712;2023-04-08T09:17:36;99627.81;;;12.04;50.32
71795;BME280;59641;45.188;5.712;2023-04-08T09:20:07;99619.69;;;12.10;50.09
71795;BME280;59641;45.188;5.712;2023-04-08T09:22:54;99622.88;;;12.19;49.84
71795;BME280;59641;45.188;5.712;2023-04-08T09:25:31;99620.94;;;12.26;49.46
71795;BME280;59641;45.188;5.712;2023-04-08T09:27:57;99619.66;;;12.29;49.43
71795;BME280;59641;45.188;5.712;2023-04-08T09:30:25;99615.25;;;12.34;49.27
71795;BME280;59641;45.188;5.712;2023-04-08T09:32:56;99613.31;;;12.42;48.92
71795;BME280;59641;45.188;5.712;2023-04-08T09:35:23;99617.78;;;12.48;48.91
71795;BME280;59641;45.188;5.712;2023-04-08T09:37:49;99609.03;;;12.52;48.69
71795;BME280;59641;45.188;5.712;2023-04-08T09:40:15;99608.59;;;12.55;48.50
71795;BME280;59641;45.188;5.712;2023-04-08T09:42:44;99602.97;;;12.57;48.13
71795;BME280;59641;45.188;5.712;2023-04-08T09:45:14;99607.06;;;12.60;48.20
71795;BME280;59641;45.188;5.712;2023-04-08T09:50:42;99600.13;;;12.70;48.42
71795;BME280;59641;45.188;5.712;2023-04-08T09:53:35;99605.03;;;12.73;48.26
71795;BME280;59641;45.188;5.712;2023-04-08T09:56:06;99602.94;;;12.75;47.70
71795;BME280;59641;45.188;5.712;2023-04-08T09:58:47;99604.56;;;12.76;47.75
71795;BME280;59641;45.188;5.712;2023-04-08T10:01:15;99606.22;;;12.77;47.80
71795;BME280;59641;45.188;5.712;2023-04-08T10:03:49;99600.38;;;12.81;47.45
71795;BME280;59641;45.188;5.712;2023-04-08T10:06:16;99595.00;;;12.81;47.64
71795;BME280;59641;45.188;5.712;2023-04-08T10:08:43;99599.31;;;12.82;47.19
71795;BME280;59641;45.188;5.712;2023-04-08T10:11:09;99592.09;;;12.82;47.35
71795;BME280;59641;45.188;5.712;2023-04-08T10:13:35;99587.50;;;12.83;47.66
71795;BME280;59641;45.188;5.712;2023-04-08T10:16:23;99588.84;;;12.92;47.61
71795;BME280;59641;45.188;5.712;2023-04-08T10:18:51;99591.66;;;12.97;47.76
71795;BME280;59641;45.188;5.712;2023-04-08T10:21:39;99585.72;;;13.07;47.82
71795;BME280;59641;45.188;5.712;2023-04-08T10:24:12;99586.91;;;13.11;47.84
71795;BME280;59641;45.188;5.712;2023-04-08T10:26:44;99581.97;;;13.19;47.87
71795;BME280;59641;45.188;5.712;2023-04-08T10:31:41;99571.25;;;13.31;47.74
71795;BME280;59641;45.188;5.712;2023-04-08T10:34:17;99573.38;;;13.41;47.58
71795;BME280;59641;45.188;5.712;2023-04-08T10:36:46;99575.16;;;13.47;47.69
71795;BME280;59641;45.188;5.712;2023-04-08T10:39:12;99574.44;;;13.52;46.92
71795;BME280;59641;45.188;5.712;2023-04-08T10:41:42;99574.31;;;13.58;47.10
71795;BME280;59641;45.188;5.712;2023-04-08T10:44:17;99570.44;;;13.66;47.25
71795;BME280;59641;45.188;5.712;2023-04-08T10:46:46;99574.09;;;13.72;46.75
71795;BME280;59641;45.188;5.712;2023-04-08T10:49:13;99565.28;;;13.76;46.46
71795;BME280;59641;45.188;5.712;2023-04-08T10:51:39;99564.31;;;13.82;46.64
71795;BME280;59641;45.188;5.712;2023-04-08T10:54:10;99567.72;;;13.90;46.37
71795;BME280;59641;45.188;5.712;2023-04-08T10:56:43;99559.50;;;13.96;46.71
71795;BME280;59641;45.188;5.712;2023-04-08T10:59:09;99552.34;;;14.02;46.74
71795;BME280;59641;45.188;5.712;2023-04-08T11:01:39;99551.16;;;14.10;46.63
71795;BME280;59641;45.188;5.712;2023-04-08T11:04:12;99557.81;;;14.19;46.63
71795;BME280;59641;45.188;5.712;2023-04-08T11:06:38;99551.47;;;14.25;46.73
71795;BME280;59641;45.188;5.712;2023-04-08T11:09:03;99540.53;;;14.32;46.89
71795;BME280;59641;45.188;5.712;2023-04-08T11:11:29;99540.16;;;14.40;46.68
71795;BME280;59641;45.188;5.712;2023-04-08T11:13:55;99531.09;;;14.46;46.44
71795;BME280;59641;45.188;5.712;2023-04-08T11:16:21;99536.94;;;14.55;46.39
71795;BME280;59641;45.188;5.712;2023-04-08T11:18:47;99537.63;;;14.62;46.21
71795;BME280;59641;45.188;5.712;2023-04-08T11:21:14;99535.34;;;14.70;46.35
71795;BME280;59641;45.188;5.712;2023-04-08T11:23:41;99533.63;;;14.81;46.13
71795;BME280;59641;45.188;5.712;2023-04-08T11:26:06;99540.56;;;14.89;46.30
71795;BME280;59641;45.188;5.712;2023-04-08T11:28:33;99532.63;;;14.99;45.78
71795;BME280;59641;45.188;5.712;2023-04-08T11:31:00;99531.63;;;15.05;45.53
71795;BME280;59641;45.188;5.712;2023-04-08T11:33:30;99527.94;;;15.11;45.66
71795;BME280;59641;45.188;5.712;2023-04-08T11:35:56;99518.38;;;15.21;45.75
71795;BME280;59641;45.188;5.712;2023-04-08T11:38:23;99520.66;;;15.29;45.48
71795;BME280;59641;45.188;5.712;2023-04-08T11:40:58;99515.97;;;15.41;45.83
71795;BME280;59641;45.188;5.712;2023-04-08T11:43:24;99506.94;;;15.52;45.30
71795;BME280;59641;45.188;5.712;2023-04-08T11:45:50;99508.22;;;15.67;45.24
71795;BME280;59641;45.188;5.712;2023-04-08T11:48:16;99507.06;;;15.80;45.20
71795;BME280;59641;45.188;5.712;2023-04-08T11:50:42;99500.47;;;15.92;45.27
71795;BME280;59641;45.188;5.712;2023-04-08T11:53:20;99493.63;;;16.07;44.55
71795;BME280;59641;45.188;5.712;2023-04-08T11:55:47;99494.53;;;16.17;44.36
71795;BME280;59641;45.188;5.712;2023-04-08T11:58:13;99483.81;;;16.28;43.86
71795;BME280;59641;45.188;5.712;2023-04-08T12:00:39;99487.72;;;16.37;44.04
71795;BME280;59641;45.188;5.712;2023-04-08T12:03:05;99482.34;;;16.42;43.59
71795;BME280;59641;45.188;5.712;2023-04-08T12:05:31;99473.72;;;16.45;42.50
71795;BME280;59641;45.188;5.712;2023-04-08T12:07:56;99475.34;;;16.46;42.76
71795;BME280;59641;45.188;5.712;2023-04-08T12:10:22;99472.94;;;16.50;42.87
71795;BME280;59641;45.188;5.712;2023-04-08T12:12:49;99476.22;;;16.52;42.55
71795;BME280;59641;45.188;5.712;2023-04-08T12:15:14;99469.47;;;16.54;41.82
71795;BME280;59641;45.188;5.712;2023-04-08T12:17:40;99460.00;;;16.57;42.31
71795;BME280;59641;45.188;5.712;2023-04-08T12:20:05;99455.97;;;16.59;42.33
71795;BME280;59641;45.188;5.712;2023-04-08T12:22:31;99457.09;;;16.64;42.47
71795;BME280;59641;45.188;5.712;2023-04-08T12:24:57;99448.44;;;16.67;41.98
71795;BME280;59641;45.188;5.712;2023-04-08T12:27:22;99455.78;;;16.71;42.08
71795;BME280;59641;45.188;5.712;2023-04-08T12:29:48;99452.84;;;16.73;40.85
71795;BME280;59641;45.188;5.712;2023-04-08T12:32:14;99461.78;;;16.73;42.07
71795;BME280;59641;45.188;5.712;2023-04-08T12:34:39;99449.88;;;16.74;42.27
71795;BME280;59641;45.188;5.712;2023-04-08T12:37:05;99445.03;;;16.76;41.96
71795;BME280;59641;45.188;5.712;2023-04-08T12:39:30;99448.88;;;16.80;41.54
71795;BME280;59641;45.188;5.712;2023-04-08T12:41:56;99442.38;;;16.81;41.91
71795;BME280;59641;45.188;5.712;2023-04-08T12:44:21;99445.63;;;16.83;40.79
71795;BME280;59641;45.188;5.712;2023-04-08T12:46:46;99433.47;;;16.86;40.33
71795;BME280;59641;45.188;5.712;2023-04-08T12:49:12;99430.50;;;16.88;41.38
71795;BME280;59641;45.188;5.712;2023-04-08T12:51:37;99435.66;;;16.89;40.86
71795;BME280;59641;45.188;5.712;2023-04-08T12:54:04;99437.56;;;16.89;40.95
71795;BME280;59641;45.188;5.712;2023-04-08T12:56:30;99426.44;;;16.90;40.81
71795;BME280;59641;45.188;5.712;2023-04-08T12:58:57;99432.69;;;16.91;40.88
71795;BME280;59641;45.188;5.712;2023-04-08T13:01:22;99431.31;;;16.88;40.68
71795;BME280;59641;45.188;5.712;2023-04-08T13:03:48;99424.50;;;16.86;40.76
71795;BME280;59641;45.188;5.712;2023-04-08T13:06:13;99429.38;;;16.83;40.81
71795;BME280;59641;45.188;5.712;2023-04-08T13:08:39;99433.16;;;16.82;40.47